Time;durP1;ratioP1;P1;durP2;ratioP2;P2;SDS_P1;SDS_P2;PMS_P1;PMS_P2;Temp;Humidity;BMP_temperature;BMP_pressure;BME280_temperature;BME280_humidity;BME280_pressure;Samples;Min_cycle;Max_cycle;Signal;HPM_P1;HPM_P2
2024/01/29 00:02:02;;;;;;;0.50;0.50;;;9.70;55.70;;;;;;5094380;28;20039;-70
2024/01/29 00:04:27;;;;;;;0.73;0.73;;;9.70;55.40;;;;;;5094061;28;20036;-70
2024/01/29 00:06:54;;;;;;;0.93;0.90;;;9.70;55.50;;;;;;5095009;28;20368;-70
2024/01/29 00:09:20;;;;;;;0.60;0.60;;;9.80;55.60;;;;;;5094614;28;20070;-67
2024/01/29 00:11:45;;;;;;;0.70;0.70;;;9.70;54.90;;;;;;5094717;28;20168;-70
2024/01/29 00:14:11;;;;;;;0.50;0.50;;;9.80;54.80;;;;;;5093188;28;20024;-70
2024/01/29 00:16:36;;;;;;;0.55;0.55;;;9.80;54.90;;;;;;5094430;28;20020;-67
2024/01/29 00:19:02;;;;;;;0.43;0.43;;;9.80;54.90;;;;;;5094637;28;20038;-67
2024/01/29 00:21:27;;;;;;;0.60;0.60;;;9.80;55.10;;;;;;5094809;28;20214;-67
2024/01/29 00:23:54;;;;;;;0.50;0.50;;;9.80;54.80;;;;;;5094784;28;20036;-66
2024/01/29 00:26:19;;;;;;;0.50;0.50;;;9.80;54.70;;;;;;5094893;28;20056;-66
2024/01/29 00:28:45;;;;;;;1.10;1.02;;;9.80;54.50;;;;;;5094686;28;20112;-68
2024/01/29 00:31:10;;;;;;;0.80;0.80;;;9.80;54.40;;;;;;5094675;28;20032;-69
2024/01/29 00:33:36;;;;;;;1.33;1.23;;;9.80;54.20;;;;;;5094725;28;20426;-69
2024/01/29 00:36:01;;;;;;;1.33;1.05;;;9.80;54.00;;;;;;5094783;28;20054;-69
2024/01/29 00:38:27;;;;;;;0.50;0.50;;;9.80;53.70;;;;;;5094759;28;20054;-69
2024/01/29 00:40:52;;;;;;;0.50;0.50;;;9.90;54.00;;;;;;5094497;28;20523;-69
2024/01/29 00:43:18;;;;;;;3.53;2.63;;;9.90;53.90;;;;;;5093946;28;20103;-69
2024/01/29 00:45:43;;;;;;;0.52;0.52;;;9.90;53.60;;;;;;5092425;28;20032;-69
2024/01/29 00:48:09;;;;;;;0.50;0.50;;;9.90;53.60;;;;;;5094132;28;20075;-66
2024/01/29 00:50:34;;;;;;;0.50;0.50;;;9.90;53.60;;;;;;5094123;28;20387;-69
2024/01/29 00:53:00;;;;;;;0.50;0.50;;;10.00;53.80;;;;;;5094161;28;20029;-69
2024/01/29 00:55:25;;;;;;;0.50;0.50;;;10.00;53.80;;;;;;5093745;28;20095;-69
2024/01/29 00:57:51;;;;;;;0.60;0.60;;;10.00;54.00;;;;;;5094041;28;20024;-69
2024/01/29 01:00:17;;;;;;;0.60;0.60;;;10.00;53.50;;;;;;5094357;28;20024;-69
2024/01/29 01:02:42;;;;;;;0.50;0.50;;;10.00;53.70;;;;;;5094054;28;20087;-67
2024/01/29 01:05:08;;;;;;;2.67;1.27;;;10.10;53.50;;;;;;5093151;28;20036;-69
2024/01/29 01:07:33;;;;;;;0.50;0.50;;;10.10;53.80;;;;;;5093792;28;20030;-69
2024/01/29 01:09:59;;;;;;;0.47;0.47;;;10.10;53.40;;;;;;5093860;28;20532;-69
2024/01/29 01:12:25;;;;;;;0.50;0.50;;;10.10;53.40;;;;;;5093830;28;20032;-66
2024/01/29 01:14:50;;;;;;;0.60;0.60;;;10.20;53.60;;;;;;5093121;28;20031;-69
2024/01/29 01:17:16;;;;;;;1.02;0.93;;;10.10;53.80;;;;;;5094013;28;20024;-69
2024/01/29 01:19:42;;;;;;;0.90;0.90;;;10.00;53.80;;;;;;5093896;28;20032;-69
2024/01/29 01:22:08;;;;;;;0.50;0.50;;;10.00;54.10;;;;;;5093949;28;20032;-69
2024/01/29 01:24:33;;;;;;;0.57;0.57;;;10.00;54.10;;;;;;5093580;28;20042;-68
2024/01/29 01:26:59;;;;;;;0.50;0.50;;;10.00;54.00;;;;;;5093991;28;20024;-68
2024/01/29 01:29:24;;;;;;;0.60;0.60;;;9.90;53.80;;;;;;5093663;28;20028;-66
2024/01/29 01:31:49;;;;;;;0.70;0.70;;;9.90;54.10;;;;;;5093804;28;20036;-66
2024/01/29 01:34:15;;;;;;;0.80;0.77;;;9.90;53.60;;;;;;5093533;28;20373;-66
2024/01/29 01:36:40;;;;;;;0.50;0.50;;;9.80;53.80;;;;;;5093563;28;20032;-67
2024/01/29 01:39:06;;;;;;;0.75;0.75;;;9.80;53.70;;;;;;5093476;28;20025;-66
2024/01/29 01:41:32;;;;;;;0.50;0.50;;;9.80;53.50;;;;;;5093688;28;20379;-66
2024/01/29 01:43:57;;;;;;;0.60;0.60;;;9.80;53.60;;;;;;5093273;28;20111;-69
2024/01/29 01:46:23;;;;;;;0.50;0.50;;;9.70;53.50;;;;;;5093394;28;20039;-69
2024/01/29 01:48:54;;;;;;;0.60;0.60;;;9.70;53.40;;;;;;5092566;28;20039;-69
2024/01/29 01:51:20;;;;;;;0.43;0.43;;;9.60;53.50;;;;;;5093200;28;20036;-68
2024/01/29 01:53:53;;;;;;;0.50;0.50;;;9.70;53.30;;;;;;5093055;28;20020;-69
2024/01/29 01:56:19;;;;;;;0.70;0.70;;;9.60;53.70;;;;;;5092667;28;20057;-69
2024/01/29 01:58:45;;;;;;;0.60;0.60;;;9.50;53.50;;;;;;5092840;28;20028;-69
2024/01/29 02:01:14;;;;;;;0.80;0.80;;;9.50;53.60;;;;;;5093142;28;20371;-69
2024/01/29 02:03:40;;;;;;;0.70;0.70;;;9.40;53.60;;;;;;5092617;28;20028;-69
2024/01/29 02:06:06;;;;;;;0.40;0.40;;;9.40;53.60;;;;;;5092243;28;20459;-67
2024/01/29 02:08:32;;;;;;;0.60;0.60;;;9.40;53.70;;;;;;5074670;28;20057;-66
2024/01/29 02:11:00;;;;;;;1.35;1.25;;;9.40;53.60;;;;;;5092452;28;20119;-69
2024/01/29 02:13:25;;;;;;;0.60;0.60;;;9.30;53.70;;;;;;5092144;28;20032;-69
2024/01/29 02:15:51;;;;;;;0.60;0.60;;;9.30;53.70;;;;;;5092605;28;20376;-69
2024/01/29 02:18:16;;;;;;;0.60;0.60;;;9.30;53.70;;;;;;5091363;28;20024;-69
2024/01/29 02:20:42;;;;;;;0.50;0.50;;;9.30;53.80;;;;;;5092719;28;20432;-69
2024/01/29 02:23:07;;;;;;;0.95;0.80;;;9.30;54.00;;;;;;5092321;28;20038;-69
2024/01/29 02:25:33;;;;;;;0.70;0.70;;;9.30;53.90;;;;;;5092519;28;20047;-69
2024/01/29 02:27:59;;;;;;;0.52;0.52;;;9.20;53.90;;;;;;5092381;28;20046;-68
2024/01/29 02:30:24;;;;;;;0.80;0.80;;;9.20;54.00;;;;;;5091914;28;20066;-69
2024/01/29 02:32:50;;;;;;;1.05;1.05;;;9.10;53.70;;;;;;5091987;28;20044;-69
2024/01/29 02:35:15;;;;;;;0.50;0.50;;;9.10;54.10;;;;;;5091817;28;20021;-69
2024/01/29 02:37:41;;;;;;;0.50;0.50;;;9.10;54.00;;;;;;5091835;28;20063;-69
2024/01/29 02:40:07;;;;;;;0.55;0.55;;;9.10;53.90;;;;;;5091961;28;20028;-69
2024/01/29 02:42:33;;;;;;;1.00;1.00;;;9.00;53.90;;;;;;5092311;28;20024;-69
2024/01/29 02:44:59;;;;;;;0.43;0.43;;;9.00;53.90;;;;;;5091915;28;20032;-68
2024/01/29 02:47:24;;;;;;;0.98;0.98;;;9.00;53.80;;;;;;5091321;28;20040;-66
2024/01/29 02:49:49;;;;;;;0.60;0.60;;;9.00;53.90;;;;;;5092132;28;20036;-68
2024/01/29 02:52:16;;;;;;;0.77;0.77;;;8.90;53.80;;;;;;5092358;28;20032;-68
2024/01/29 02:54:41;;;;;;;2.78;1.02;;;8.90;54.10;;;;;;5091960;28;20475;-69
2024/01/29 02:57:07;;;;;;;4.22;1.45;;;8.80;54.20;;;;;;5091578;28;20112;-69
2024/01/29 02:59:32;;;;;;;0.57;0.57;;;8.80;54.60;;;;;;5091527;28;20503;-69
2024/01/29 03:01:59;;;;;;;0.50;0.50;;;8.80;54.80;;;;;;5092014;28;20093;-69
2024/01/29 03:04:25;;;;;;;0.60;0.60;;;8.70;55.20;;;;;;5072930;28;20040;-68
2024/01/29 03:06:50;;;;;;;0.50;0.50;;;8.60;55.20;;;;;;5092143;28;20036;-68
2024/01/29 03:09:16;;;;;;;2.47;1.77;;;8.50;54.80;;;;;;5090884;28;20032;-69
2024/01/29 03:11:42;;;;;;;1.35;1.25;;;8.40;54.40;;;;;;5091975;28;20502;-69
2024/01/29 03:14:08;;;;;;;0.60;0.60;;;8.30;54.70;;;;;;5091155;28;20056;-69
2024/01/29 03:16:35;;;;;;;0.95;0.95;;;8.10;55.00;;;;;;5092070;28;20044;-69
2024/01/29 03:19:01;;;;;;;1.55;1.45;;;8.00;55.10;;;;;;5091691;28;20089;-69
2024/01/29 03:21:29;;;;;;;0.50;0.50;;;7.90;55.00;;;;;;5091802;28;20032;-69
2024/01/29 03:23:56;;;;;;;0.50;0.50;;;7.80;55.30;;;;;;5091779;28;20087;-68
2024/01/29 03:26:21;;;;;;;0.50;0.50;;;7.70;55.50;;;;;;5092016;28;20036;-69
2024/01/29 03:28:47;;;;;;;0.60;0.60;;;7.70;55.80;;;;;;5091575;28;20032;-68
2024/01/29 03:31:13;;;;;;;0.60;0.60;;;7.70;56.00;;;;;;5091568;28;20441;-68
2024/01/29 03:33:38;;;;;;;0.50;0.50;;;7.60;56.20;;;;;;5073456;28;20507;-68
2024/01/29 03:36:04;;;;;;;0.70;0.70;;;7.50;56.40;;;;;;5091610;28;20036;-68
2024/01/29 03:38:30;;;;;;;0.77;0.77;;;7.40;56.50;;;;;;5091681;28;20059;-69
2024/01/29 03:40:55;;;;;;;0.60;0.60;;;7.40;56.60;;;;;;5091686;28;20060;-68
2024/01/29 03:43:21;;;;;;;0.60;0.60;;;7.30;56.70;;;;;;5091436;28;20494;-69
2024/01/29 03:45:50;;;;;;;0.60;0.60;;;7.30;56.80;;;;;;5091513;28;20103;-69
2024/01/29 03:48:15;;;;;;;0.60;0.60;;;7.20;57.10;;;;;;5091639;28;20029;-68
2024/01/29 03:50:41;;;;;;;0.60;0.60;;;7.20;57.30;;;;;;5091000;28;20123;-69
2024/01/29 03:53:07;;;;;;;0.50;0.50;;;7.20;57.50;;;;;;5091039;28;20077;-68
2024/01/29 03:55:32;;;;;;;1.58;1.35;;;7.10;57.60;;;;;;5072759;28;20506;-69
2024/01/29 03:57:57;;;;;;;0.60;0.60;;;7.10;57.70;;;;;;5091259;28;20024;-68
2024/01/29 04:00:23;;;;;;;0.50;0.50;;;7.10;57.60;;;;;;5090433;28;20522;-69
2024/01/29 04:02:49;;;;;;;0.50;0.50;;;7.10;57.80;;;;;;5091158;28;20020;-68
2024/01/29 04:05:16;;;;;;;0.60;0.60;;;7.00;57.80;;;;;;5090619;28;20077;-68
2024/01/29 04:07:41;;;;;;;0.60;0.60;;;7.00;57.80;;;;;;5091137;28;20042;-68
2024/01/29 04:10:07;;;;;;;0.60;0.60;;;6.90;57.80;;;;;;5090957;28;20383;-68
2024/01/29 04:12:33;;;;;;;0.60;0.60;;;6.80;57.80;;;;;;5090871;28;20036;-68
2024/01/29 04:14:58;;;;;;;0.60;0.60;;;6.70;57.70;;;;;;5090838;28;20028;-68
2024/01/29 04:17:24;;;;;;;0.50;0.50;;;6.70;57.90;;;;;;5090859;28;20060;-69
2024/01/29 04:19:49;;;;;;;0.55;0.55;;;6.70;58.00;;;;;;5092380;28;20036;-68
2024/01/29 04:22:15;;;;;;;0.60;0.60;;;6.60;57.90;;;;;;5095162;28;20360;-68
2024/01/29 04:24:41;;;;;;;0.60;0.60;;;6.50;57.90;;;;;;5094859;28;20028;-68
2024/01/29 04:27:06;;;;;;;0.50;0.50;;;6.40;58.10;;;;;;5094413;28;20036;-68
2024/01/29 04:29:31;;;;;;;0.60;0.60;;;6.40;58.20;;;;;;5095042;28;20597;-68
2024/01/29 04:31:57;;;;;;;0.55;0.55;;;6.40;58.30;;;;;;5093916;28;20051;-68
2024/01/29 04:34:22;;;;;;;0.60;0.60;;;6.30;58.60;;;;;;5076263;28;20502;-69
2024/01/29 04:36:48;;;;;;;0.57;0.57;;;6.30;58.70;;;;;;5094804;28;20032;-68
2024/01/29 04:39:13;;;;;;;0.50;0.50;;;6.30;58.70;;;;;;5094286;28;20092;-69
2024/01/29 04:41:39;;;;;;;0.80;0.80;;;6.20;58.70;;;;;;5094295;28;20047;-69
2024/01/29 04:44:04;;;;;;;1.42;1.13;;;6.20;58.80;;;;;;5094061;28;20388;-68
2024/01/29 04:46:30;;;;;;;0.60;0.60;;;6.20;59.00;;;;;;5094527;28;20118;-68
2024/01/29 04:48:56;;;;;;;0.90;0.90;;;6.20;59.20;;;;;;5094455;28;20031;-68
2024/01/29 04:51:21;;;;;;;0.90;0.90;;;6.30;59.40;;;;;;5094384;28;20035;-68
2024/01/29 04:53:47;;;;;;;0.60;0.60;;;6.20;59.50;;;;;;5094173;28;20020;-68
2024/01/29 04:56:12;;;;;;;0.50;0.50;;;6.30;59.60;;;;;;5094152;28;20111;-69
2024/01/29 04:58:38;;;;;;;0.73;0.73;;;6.30;59.60;;;;;;5094453;28;20475;-68
2024/01/29 05:01:04;;;;;;;0.70;0.70;;;6.40;59.50;;;;;;5094369;28;20119;-69
2024/01/29 05:03:29;;;;;;;0.55;0.55;;;6.30;59.50;;;;;;5094033;28;20024;-68
2024/01/29 05:05:56;;;;;;;0.65;0.65;;;6.40;59.50;;;;;;5094132;28;20417;-68
2024/01/29 05:08:21;;;;;;;0.60;0.60;;;6.30;59.50;;;;;;5093896;28;20028;-69
2024/01/29 05:10:47;;;;;;;0.80;0.80;;;6.30;59.60;;;;;;5093599;28;20077;-69
2024/01/29 05:13:12;;;;;;;0.65;0.65;;;6.30;59.60;;;;;;5093927;28;20107;-68
2024/01/29 05:15:38;;;;;;;0.50;0.50;;;6.30;59.60;;;;;;5093937;28;20032;-69
2024/01/29 05:18:04;;;;;;;0.63;0.63;;;6.20;59.70;;;;;;5093745;28;20024;-68
2024/01/29 05:20:30;;;;;;;0.60;0.60;;;6.20;59.70;;;;;;5093849;28;20070;-68
2024/01/29 05:22:56;;;;;;;0.60;0.60;;;6.20;59.70;;;;;;5093689;28;20109;-69
2024/01/29 05:25:22;;;;;;;0.60;0.60;;;6.20;59.70;;;;;;5093560;28;20047;-69
2024/01/29 05:27:47;;;;;;;0.60;0.60;;;6.20;59.70;;;;;;5093751;28;20024;-68
2024/01/29 05:30:14;;;;;;;0.50;0.50;;;6.10;59.80;;;;;;5093531;28;20513;-68
2024/01/29 05:32:39;;;;;;;0.50;0.50;;;6.10;59.90;;;;;;5092481;28;20216;-68
2024/01/29 05:35:06;;;;;;;0.60;0.60;;;6.10;60.10;;;;;;5092501;28;20024;-68
2024/01/29 05:37:33;;;;;;;0.70;0.70;;;6.20;60.10;;;;;;5093401;28;20039;-68
2024/01/29 05:40:04;;;;;;;0.77;0.77;;;6.20;60.30;;;;;;5093083;28;20016;-68
2024/01/29 05:42:30;;;;;;;0.60;0.60;;;6.20;60.30;;;;;;5093285;28;20475;-68
2024/01/29 05:44:55;;;;;;;0.75;0.75;;;6.20;60.40;;;;;;5093204;28;20063;-69
2024/01/29 05:47:21;;;;;;;0.60;0.60;;;6.30;60.50;;;;;;5093838;28;20093;-68
2024/01/29 05:49:46;;;;;;;0.50;0.50;;;6.30;60.50;;;;;;5093255;28;20032;-68
2024/01/29 05:52:12;;;;;;;0.60;0.60;;;6.30;60.50;;;;;;5093423;28;20032;-68
2024/01/29 05:54:37;;;;;;;0.60;0.60;;;6.30;60.60;;;;;;5091973;28;20081;-68
2024/01/29 05:57:03;;;;;;;0.60;0.60;;;6.40;60.50;;;;;;5093358;28;20063;-68
2024/01/29 05:59:28;;;;;;;0.60;0.60;;;6.40;60.40;;;;;;5092894;28;20556;-68
2024/01/29 06:01:54;;;;;;;0.70;0.70;;;6.40;60.40;;;;;;5093318;28;20043;-68
2024/01/29 06:04:19;;;;;;;0.68;0.68;;;6.50;60.40;;;;;;5092754;28;20073;-69
2024/01/29 06:06:45;;;;;;;0.60;0.60;;;6.50;60.30;;;;;;5093018;28;20123;-68
2024/01/29 06:09:10;;;;;;;0.50;0.50;;;6.60;60.40;;;;;;5092740;28;20093;-68
2024/01/29 06:11:36;;;;;;;1.02;1.02;;;6.60;60.30;;;;;;5093067;28;20028;-68
2024/01/29 06:14:02;;;;;;;1.08;1.08;;;6.60;60.40;;;;;;5092583;28;20024;-68
2024/01/29 06:16:28;;;;;;;0.70;0.70;;;6.70;60.50;;;;;;5093143;28;20495;-69
2024/01/29 06:18:57;;;;;;;0.65;0.65;;;6.70;60.40;;;;;;5093198;28;20020;-68
2024/01/29 06:21:23;;;;;;;0.60;0.60;;;6.80;60.40;;;;;;5092474;28;20089;-68
2024/01/29 06:23:48;;;;;;;0.55;0.55;;;6.80;60.40;;;;;;5092468;28;20425;-68
2024/01/29 06:26:14;;;;;;;0.65;0.65;;;6.90;60.40;;;;;;5092582;28;20044;-68
2024/01/29 06:28:43;;;;;;;0.60;0.60;;;6.80;60.30;;;;;;5092556;28;20035;-68
2024/01/29 06:31:09;;;;;;;0.60;0.60;;;6.90;60.30;;;;;;5092417;28;20471;-68
2024/01/29 06:33:39;;;;;;;0.52;0.52;;;6.90;60.30;;;;;;5093633;28;20026;-69
2024/01/29 06:36:05;;;;;;;1.05;0.98;;;6.90;60.30;;;;;;5093581;28;20031;-69
2024/01/29 06:38:31;;;;;;;0.82;0.82;;;6.80;60.20;;;;;;5092513;28;20028;-68
2024/01/29 06:40:58;;;;;;;0.75;0.75;;;6.80;60.30;;;;;;5092398;28;20367;-69
2024/01/29 06:43:23;;;;;;;0.60;0.60;;;6.80;60.20;;;;;;5084080;28;20056;-68
2024/01/29 06:45:49;;;;;;;0.60;0.60;;;6.80;60.20;;;;;;5082592;28;20075;-69
2024/01/29 06:48:14;;;;;;;0.50;0.50;;;6.70;60.10;;;;;;5073673;28;20035;-68
2024/01/29 06:50:40;;;;;;;0.60;0.60;;;6.70;60.10;;;;;;5105953;28;20036;-68
2024/01/29 06:53:06;;;;;;;0.60;0.60;;;6.70;60.00;;;;;;5090568;28;20024;-69
2024/01/29 06:55:31;;;;;;;0.50;0.50;;;6.60;60.10;;;;;;5091310;28;20036;-68
2024/01/29 06:57:57;;;;;;;0.80;0.80;;;6.60;60.20;;;;;;5086578;28;20028;-69
2024/01/29 07:00:23;;;;;;;0.60;0.60;;;6.50;60.20;;;;;;5082629;28;20070;-68
2024/01/29 07:02:48;;;;;;;0.95;0.90;;;6.50;60.20;;;;;;5085331;28;20502;-68
2024/01/29 07:05:15;;;;;;;0.60;0.60;;;6.50;60.20;;;;;;5077688;28;20039;-68
2024/01/29 07:07:40;;;;;;;0.60;0.60;;;6.50;60.30;;;;;;5077739;28;20021;-68
2024/01/29 07:10:06;;;;;;;0.60;0.60;;;6.40;60.30;;;;;;5075870;28;20103;-69
2024/01/29 07:12:32;;;;;;;0.63;0.63;;;6.40;60.30;;;;;;5077333;28;20040;-69
2024/01/29 07:14:57;;;;;;;0.50;0.50;;;6.40;60.30;;;;;;5078380;28;20037;-68
2024/01/29 07:17:23;;;;;;;0.65;0.65;;;6.40;60.40;;;;;;5080711;28;20395;-68
2024/01/29 07:19:48;;;;;;;0.60;0.60;;;6.40;60.40;;;;;;5076112;28;20029;-70
2024/01/29 07:22:18;;;;;;;0.60;0.60;;;6.40;60.50;;;;;;5089780;28;20432;-69
2024/01/29 07:24:45;;;;;;;0.70;0.70;;;6.40;60.70;;;;;;5091254;28;20360;-70
2024/01/29 07:27:11;;;;;;;0.70;0.70;;;6.50;61.00;;;;;;5079336;28;20028;-69
2024/01/29 07:29:36;;;;;;;0.70;0.70;;;6.70;61.50;;;;;;5069352;28;20043;-70
2024/01/29 07:32:02;;;;;;;0.60;0.60;;;6.80;61.50;;;;;;5074503;28;20044;-70
2024/01/29 07:34:28;;;;;;;0.60;0.60;;;6.90;61.40;;;;;;5070616;28;20042;-70
2024/01/29 07:36:53;;;;;;;0.70;0.70;;;7.10;61.60;;;;;;5084913;28;20378;-69
2024/01/29 07:39:19;;;;;;;0.60;0.60;;;7.20;62.00;;;;;;5078640;28;20412;-69
2024/01/29 07:41:45;;;;;;;0.80;0.80;;;7.50;62.20;;;;;;5072215;28;20479;-70
2024/01/29 07:44:10;;;;;;;0.50;0.50;;;7.60;61.50;;;;;;5082447;28;20051;-70
2024/01/29 07:46:36;;;;;;;0.70;0.70;;;7.70;61.10;;;;;;5091451;28;20032;-69
2024/01/29 07:49:03;;;;;;;0.55;0.55;;;7.80;60.90;;;;;;5088321;28;20039;-70
2024/01/29 07:51:29;;;;;;;0.60;0.60;;;7.80;60.80;;;;;;5091211;28;20068;-70
2024/01/29 07:53:54;;;;;;;0.60;0.60;;;8.00;60.60;;;;;;5091020;28;20056;-69
2024/01/29 07:56:20;;;;;;;0.40;0.40;;;8.00;60.40;;;;;;5091550;28;20028;-69
2024/01/29 07:58:45;;;;;;;0.45;0.45;;;8.00;60.10;;;;;;5077029;28;20099;-69
2024/01/29 08:01:11;;;;;;;1.42;1.33;;;8.00;59.90;;;;;;5084836;28;20046;-69
2024/01/29 08:03:36;;;;;;;0.50;0.50;;;8.10;59.80;;;;;;5090467;28;20032;-70
2024/01/29 08:06:02;;;;;;;0.70;0.70;;;8.20;59.90;;;;;;5076914;28;20458;-69
2024/01/29 08:08:29;;;;;;;0.50;0.50;;;8.20;60.30;;;;;;5082278;28;20046;-69
2024/01/29 08:10:57;;;;;;;0.60;0.60;;;8.30;60.50;;;;;;5074590;28;20468;-70
2024/01/29 08:13:22;;;;;;;0.60;0.60;;;8.40;60.50;;;;;;5074528;28;20372;-70
2024/01/29 08:15:48;;;;;;;1.33;1.23;;;8.60;60.90;;;;;;5074814;28;20044;-69
2024/01/29 08:18:13;;;;;;;0.60;0.60;;;8.80;61.90;;;;;;5075136;28;20040;-70
2024/01/29 08:20:39;;;;;;;0.60;0.60;;;9.10;63.20;;;;;;5075885;28;20036;-69
2024/01/29 08:23:05;;;;;;;0.60;0.60;;;9.50;64.00;;;;;;5091717;28;20027;-70
2024/01/29 08:25:30;;;;;;;0.50;0.50;;;9.90;63.70;;;;;;5077602;28;20055;-70
2024/01/29 08:27:56;;;;;;;0.60;0.60;;;10.20;63.00;;;;;;5094730;28;20383;-67
2024/01/29 08:30:21;;;;;;;0.70;0.70;;;10.60;63.40;;;;;;5094901;28;20028;-67
2024/01/29 08:32:47;;;;;;;0.90;0.90;;;11.10;63.50;;;;;;5074852;28;20071;-67
2024/01/29 08:35:13;;;;;;;0.60;0.60;;;11.40;62.50;;;;;;5073961;28;20074;-67
2024/01/29 08:37:39;;;;;;;0.70;0.70;;;11.70;60.80;;;;;;5079933;28;20028;-67
2024/01/29 08:40:05;;;;;;;0.50;0.50;;;11.80;59.30;;;;;;5091067;28;20039;-67
2024/01/29 08:42:31;;;;;;;0.60;0.60;;;11.90;58.30;;;;;;5056001;28;20036;-67
2024/01/29 08:44:56;;;;;;;0.60;0.60;;;11.90;58.50;;;;;;5073828;28;20035;-67
2024/01/29 08:47:22;;;;;;;0.52;0.52;;;12.20;59.30;;;;;;5074664;28;20483;-67
2024/01/29 08:49:50;;;;;;;0.40;0.40;;;12.40;59.80;;;;;;5073633;28;20082;-68
2024/01/29 08:52:15;;;;;;;0.50;0.50;;;12.70;60.10;;;;;;5089642;28;20030;-67
2024/01/29 08:54:41;;;;;;;0.65;0.65;;;13.00;60.10;;;;;;5088790;28;20107;-67
2024/01/29 08:57:06;;;;;;;0.60;0.60;;;13.40;59.60;;;;;;5093467;28;20028;-67
2024/01/29 08:59:32;;;;;;;0.70;0.70;;;13.70;58.80;;;;;;5079976;28;20099;-67
2024/01/29 09:01:58;;;;;;;0.60;0.60;;;13.90;58.00;;;;;;5073943;28;20045;-67
2024/01/29 09:04:24;;;;;;;0.63;0.63;;;14.20;58.20;;;;;;5082723;28;20406;-67
2024/01/29 09:06:50;;;;;;;0.55;0.55;;;14.60;58.30;;;;;;5053997;28;20028;-67
2024/01/29 09:09:16;;;;;;;0.73;0.73;;;14.90;58.00;;;;;;5073623;28;20054;-68
2024/01/29 09:11:41;;;;;;;0.50;0.50;;;15.20;57.40;;;;;;5058427;28;20029;-68
2024/01/29 09:14:07;;;;;;;0.70;0.70;;;15.60;56.70;;;;;;5073643;28;20032;-67
2024/01/29 09:16:33;;;;;;;0.50;0.50;;;15.80;56.10;;;;;;5074340;28;20094;-68
2024/01/29 09:18:59;;;;;;;0.88;0.70;;;16.20;55.30;;;;;;5093710;28;20449;-68
2024/01/29 09:21:25;;;;;;;0.88;0.88;;;16.30;54.30;;;;;;5093907;28;20040;-68
2024/01/29 09:23:51;;;;;;;0.60;0.60;;;16.50;53.70;;;;;;5091034;28;20423;-67
2024/01/29 09:26:17;;;;;;;0.73;0.73;;;16.70;53.60;;;;;;5085971;28;20044;-68
2024/01/29 09:28:43;;;;;;;0.65;0.65;;;17.00;53.00;;;;;;5073445;28;20499;-68
2024/01/29 09:31:09;;;;;;;0.60;0.60;;;17.20;51.90;;;;;;5072341;28;20057;-68
2024/01/29 09:33:35;;;;;;;0.60;0.60;;;17.30;51.60;;;;;;5077042;28;20472;-68
2024/01/29 09:36:02;;;;;;;0.60;0.60;;;17.50;51.00;;;;;;5073263;28;20035;-69
2024/01/29 09:38:27;;;;;;;0.60;0.60;;;17.60;50.90;;;;;;5082440;28;20020;-70
2024/01/29 09:40:54;;;;;;;0.75;0.75;;;17.80;50.70;;;;;;5093413;28;20535;-67
2024/01/29 09:43:21;;;;;;;1.05;1.00;;;18.10;51.10;;;;;;5090701;28;20122;-67
2024/01/29 09:45:50;;;;;;;0.70;0.70;;;18.30;51.00;;;;;;5093089;28;20064;-67
2024/01/29 09:48:16;;;;;;;1.08;0.77;;;18.50;50.40;;;;;;5093249;28;20024;-68
2024/01/29 09:50:43;;;;;;;0.60;0.60;;;18.70;49.20;;;;;;5078991;28;20040;-68
2024/01/29 09:53:11;;;;;;;0.73;0.73;;;18.80;48.90;;;;;;5054443;28;20028;-68
2024/01/29 09:55:36;;;;;;;0.60;0.60;;;18.90;49.60;;;;;;5072421;28;20032;-68
2024/01/29 09:58:02;;;;;;;0.73;0.73;;;19.20;50.20;;;;;;5080869;28;20016;-68
2024/01/29 10:00:27;;;;;;;0.60;0.60;;;19.40;50.00;;;;;;5093235;28;20035;-68
2024/01/29 10:02:53;;;;;;;1.02;0.95;;;19.60;49.20;;;;;;5089425;28;20036;-68
2024/01/29 10:05:19;;;;;;;0.70;0.70;;;19.90;49.50;;;;;;5090147;28;20418;-68
2024/01/29 10:07:45;;;;;;;0.65;0.65;;;20.10;48.90;;;;;;5092494;28;20107;-68
2024/01/29 10:10:11;;;;;;;0.50;0.50;;;20.30;48.00;;;;;;5091435;28;20024;-68
2024/01/29 10:12:37;;;;;;;0.50;0.50;;;20.40;47.90;;;;;;5090568;28;20032;-68
2024/01/29 10:15:03;;;;;;;0.70;0.70;;;20.60;47.80;;;;;;5092723;28;20051;-68
2024/01/29 10:17:29;;;;;;;0.70;0.70;;;20.70;47.30;;;;;;5088993;28;20093;-68
2024/01/29 10:19:54;;;;;;;0.80;0.80;;;20.80;47.00;;;;;;5092483;28;20096;-68
2024/01/29 10:22:26;;;;;;;0.60;0.60;;;20.90;46.40;;;;;;5092844;28;20038;-68
2024/01/29 10:25:02;;;;;;;0.60;0.60;;;21.00;46.80;;;;;;5075988;28;20472;-68
2024/01/29 10:27:28;;;;;;;0.90;0.90;;;21.20;46.70;;;;;;5072314;28;20175;-68
2024/01/29 10:29:54;;;;;;;0.60;0.60;;;21.30;45.80;;;;;;5076315;28;20091;-68
2024/01/29 10:32:21;;;;;;;0.57;0.57;;;21.40;45.50;;;;;;5092702;28;20034;-67
2024/01/29 10:34:46;;;;;;;0.70;0.70;;;21.40;45.00;;;;;;5092173;28;20016;-68
2024/01/29 10:37:15;;;;;;;0.50;0.50;;;21.50;43.40;;;;;;5090339;28;20490;-68
2024/01/29 10:39:41;;;;;;;0.70;0.70;;;21.50;43.30;;;;;;5091524;28;20016;-68
2024/01/29 10:42:09;;;;;;;0.60;0.60;;;21.60;43.90;;;;;;5091203;28;20570;-68
2024/01/29 10:44:37;;;;;;;0.50;0.50;;;21.70;43.60;;;;;;5092442;28;20052;-68
2024/01/29 10:47:08;;;;;;;0.77;0.77;;;21.80;42.90;;;;;;5073225;28;20039;-68
2024/01/29 10:49:34;;;;;;;0.60;0.60;;;21.80;42.70;;;;;;5089204;28;20388;-68
2024/01/29 10:52:01;;;;;;;0.60;0.60;;;21.90;41.80;;;;;;5073594;28;20039;-68
2024/01/29 10:54:28;;;;;;;0.52;0.52;;;22.00;41.60;;;;;;5087891;28;20035;-67
2024/01/29 10:56:54;;;;;;;0.60;0.60;;;22.00;41.70;;;;;;5089799;28;20404;-67
2024/01/29 10:59:21;;;;;;;0.52;0.52;;;22.20;40.90;;;;;;5089878;28;20020;-68
2024/01/29 11:01:48;;;;;;;0.60;0.60;;;22.30;40.70;;;;;;5091836;28;20472;-68
2024/01/29 11:04:16;;;;;;;0.65;0.65;;;22.30;40.70;;;;;;5089100;28;20483;-68
2024/01/29 11:06:54;;;;;;;0.52;0.52;;;22.50;40.00;;;;;;5071959;28;20039;-67
2024/01/29 11:09:24;;;;;;;0.50;0.50;;;22.60;38.70;;;;;;5078774;28;20032;-68
2024/01/29 11:11:51;;;;;;;0.60;0.60;;;22.60;37.60;;;;;;5086232;28;20376;-67
2024/01/29 11:14:21;;;;;;;2.20;1.80;;;22.60;38.10;;;;;;5071315;28;20024;-68
2024/01/29 11:16:47;;;;;;;0.80;0.80;;;22.70;37.40;;;;;;5071629;28;20024;-68
2024/01/29 11:19:13;;;;;;;0.50;0.50;;;22.70;37.30;;;;;;5070487;28;20391;-68
2024/01/29 11:21:51;;;;;;;0.60;0.60;;;22.70;35.90;;;;;;5091978;28;20036;-68
2024/01/29 11:24:21;;;;;;;0.40;0.40;;;22.70;36.90;;;;;;5091422;28;20039;-68
2024/01/29 11:26:47;;;;;;;0.50;0.50;;;22.80;36.80;;;;;;5079921;28;20055;-68
2024/01/29 11:29:14;;;;;;;0.70;0.70;;;22.80;35.90;;;;;;5078430;28;20376;-68
2024/01/29 11:31:45;;;;;;;1.80;0.73;;;22.80;35.60;;;;;;5091816;28;20028;-68
2024/01/29 11:34:12;;;;;;;;;;;22.80;35.50;;;;;;5088668;28;20095;-68
2024/01/29 11:36:38;;;;;;;0.50;0.50;;;22.90;35.70;;;;;;5071595;28;19912;-68
2024/01/29 11:39:05;;;;;;;0.60;0.60;;;22.90;34.40;;;;;;5086148;28;20123;-68
2024/01/29 11:41:35;;;;;;;0.63;0.63;;;22.90;35.00;;;;;;5078186;28;20044;-68
2024/01/29 11:44:02;;;;;;;1.33;0.95;;;22.90;35.20;;;;;;5071457;28;20079;-68
2024/01/29 11:46:27;;;;;;;0.80;0.80;;;23.00;34.60;;;;;;5071621;28;20063;-68
2024/01/29 11:48:57;;;;;;;0.82;0.82;;;22.90;33.60;;;;;;5091229;28;20063;-68
2024/01/29 11:51:23;;;;;;;1.10;1.02;;;22.90;34.10;;;;;;5082267;28;20093;-68
2024/01/29 11:53:52;;;;;;;0.60;0.60;;;22.90;33.60;;;;;;5070897;28;20495;-68
2024/01/29 11:56:18;;;;;;;1.98;1.15;;;22.90;34.00;;;;;;5070959;28;20035;-68
2024/01/29 11:58:44;;;;;;;0.93;0.93;;;23.00;34.30;;;;;;5071180;28;20092;-68
2024/01/29 12:01:10;;;;;;;0.50;0.50;;;23.10;33.60;;;;;;5070717;28;20379;-68
2024/01/29 12:03:36;;;;;;;1.45;1.30;;;23.00;33.80;;;;;;5089996;28;20028;-68
2024/01/29 12:06:02;;;;;;;0.63;0.63;;;23.10;33.40;;;;;;5091142;28;20101;-68
2024/01/29 12:08:27;;;;;;;0.50;0.50;;;23.10;32.90;;;;;;5064079;28;20043;-68
2024/01/29 12:11:02;;;;;;;0.77;0.77;;;23.00;32.20;;;;;;5070845;28;20507;-67
2024/01/29 12:13:28;;;;;;;0.68;0.68;;;22.90;31.80;;;;;;5070532;28;20024;-68
2024/01/29 12:15:56;;;;;;;1.08;1.00;;;22.70;32.50;;;;;;5070858;28;20028;-68
2024/01/29 12:18:24;;;;;;;0.70;0.70;;;22.70;32.70;;;;;;5070752;28;20056;-68
2024/01/29 12:20:50;;;;;;;0.63;0.63;;;22.70;32.80;;;;;;5084132;28;20487;-68
2024/01/29 12:23:17;;;;;;;0.85;0.85;;;22.70;32.00;;;;;;5090481;28;20023;-68
2024/01/29 12:25:50;;;;;;;0.88;0.88;;;22.50;31.70;;;;;;5082317;28;20039;-67
2024/01/29 12:28:16;;;;;;;0.60;0.60;;;22.30;31.60;;;;;;5070692;28;20036;-67
2024/01/29 12:30:42;;;;;;;0.52;0.52;;;22.00;31.60;;;;;;5070640;28;20388;-67
2024/01/29 12:33:16;;;;;;;1.73;1.35;;;21.70;31.90;;;;;;5088808;28;20039;-67
2024/01/29 12:35:42;;;;;;;0.60;0.60;;;21.40;32.40;;;;;;5079154;28;20044;-67
2024/01/29 12:38:08;;;;;;;1.58;1.48;;;21.20;33.00;;;;;;5077451;28;20017;-67
2024/01/29 12:40:35;;;;;;;1.00;1.00;;;21.00;33.30;;;;;;5074122;28;20028;-67
2024/01/29 12:43:01;;;;;;;0.50;0.50;;;20.80;33.60;;;;;;5092944;28;20043;-67
2024/01/29 12:45:27;;;;;;;0.70;0.70;;;20.70;33.50;;;;;;5094209;28;20459;-67
2024/01/29 12:48:09;;;;;;;0.90;0.90;;;20.50;33.70;;;;;;5091493;28;20039;-67